Time;durP1;ratioP1;P1;durP2;ratioP2;P2;SDS_P1;SDS_P2;PMS_P1;PMS_P2;Temp;Humidity;BMP_temperature;BMP_pressure;BME280_temperature;BME280_humidity;BME280_pressure;Samples;Min_cycle;Max_cycle;Signal;HPM_P1;HPM_P2
2020/12/12 00:00:57;;;;;;;14.80;10.13;;;4.40;99.90;;;;;;4951074;28;20935;-76
2020/12/12 00:03:23;;;;;;;14.15;10.48;;;4.30;99.90;;;;;;4950414;28;20032;-76
2020/12/12 00:05:48;;;;;;;14.88;9.55;;;4.40;99.90;;;;;;4949115;28;20462;-75
2020/12/12 00:08:14;;;;;;;14.82;10.20;;;4.40;99.90;;;;;;4949704;28;20114;-75
2020/12/12 00:10:40;;;;;;;14.77;10.10;;;4.40;99.90;;;;;;4949432;29;20525;-75
2020/12/12 00:13:08;;;;;;;13.45;9.98;;;4.30;99.90;;;;;;4949096;29;20047;-75
2020/12/12 00:15:34;;;;;;;16.77;10.55;;;4.40;99.90;;;;;;4950281;28;20023;-76
2020/12/12 00:18:00;;;;;;;14.73;9.93;;;4.40;99.90;;;;;;4953860;28;20031;-76
2020/12/12 00:20:26;;;;;;;14.23;9.60;;;4.30;99.90;;;;;;4953213;28;20035;-75
2020/12/12 00:22:51;;;;;;;12.50;9.25;;;4.30;99.90;;;;;;4984037;28;20037;-76
2020/12/12 00:25:17;;;;;;;14.93;9.57;;;4.20;99.90;;;;;;4952466;28;20043;-75
2020/12/12 00:27:42;;;;;;;13.90;9.20;;;4.20;99.90;;;;;;4953338;28;20065;-76
2020/12/12 00:30:08;;;;;;;13.88;9.52;;;4.20;99.90;;;;;;4952707;28;20553;-76
2020/12/12 00:32:34;;;;;;;14.13;10.00;;;4.10;99.90;;;;;;4952531;28;20031;-76
2020/12/12 00:34:59;;;;;;;15.65;10.18;;;4.00;99.90;;;;;;4952073;28;20015;-75
2020/12/12 00:37:25;;;;;;;12.93;9.20;;;3.90;99.90;;;;;;4953028;28;20050;-76
2020/12/12 00:39:51;;;;;;;13.77;9.77;;;4.10;99.90;;;;;;4953424;28;20038;-74
2020/12/12 00:42:16;;;;;;;15.13;10.25;;;4.30;99.90;;;;;;4951388;29;20118;-76
2020/12/12 00:44:42;;;;;;;13.27;9.77;;;4.40;99.90;;;;;;4952241;28;20031;-76
2020/12/12 00:47:08;;;;;;;14.75;10.32;;;4.30;99.90;;;;;;4951595;29;20059;-76
2020/12/12 00:49:33;;;;;;;13.13;9.60;;;4.30;99.90;;;;;;4952359;28;20027;-75
2020/12/12 00:51:59;;;;;;;15.27;10.70;;;4.10;99.90;;;;;;4952480;28;20184;-76
2020/12/12 00:54:24;;;;;;;14.40;10.02;;;3.80;99.90;;;;;;4951987;28;20027;-76
2020/12/12 00:56:50;;;;;;;14.93;10.65;;;3.80;99.90;;;;;;4951370;28;20101;-77
2020/12/12 00:59:18;;;;;;;15.27;11.10;;;3.80;99.90;;;;;;4963654;28;20034;-75
2020/12/12 01:01:45;;;;;;;17.00;11.75;;;3.80;99.90;;;;;;4955789;28;20026;-76
2020/12/12 01:04:11;;;;;;;19.13;12.32;;;3.70;99.90;;;;;;4966536;28;20773;-77
2020/12/12 01:06:36;;;;;;;15.68;11.27;;;3.70;99.90;;;;;;4969965;28;20157;-76
2020/12/12 01:09:02;;;;;;;16.35;11.40;;;3.80;99.90;;;;;;4965929;28;20042;-76
2020/12/12 01:11:28;;;;;;;17.65;11.23;;;4.00;99.90;;;;;;4970969;28;20398;-75
2020/12/12 01:13:53;;;;;;;17.10;11.70;;;3.90;99.90;;;;;;4965723;28;20081;-77
2020/12/12 01:16:19;;;;;;;17.58;12.23;;;3.70;99.90;;;;;;4966433;28;20451;-76
2020/12/12 01:18:45;;;;;;;17.13;12.70;;;3.70;99.90;;;;;;4959549;28;20040;-77
2020/12/12 01:21:18;;;;;;;18.65;12.63;;;3.60;99.90;;;;;;4951000;28;20027;-76
2020/12/12 01:23:44;;;;;;;18.92;12.68;;;3.70;99.90;;;;;;4965430;28;20027;-76
2020/12/12 01:26:10;;;;;;;18.88;11.70;;;3.80;99.90;;;;;;4966316;28;20464;-75
2020/12/12 01:28:36;;;;;;;18.67;12.80;;;3.70;99.90;;;;;;4966311;28;20729;-76
2020/12/12 01:31:02;;;;;;;18.00;12.20;;;3.80;99.90;;;;;;4965226;28;20061;-76
2020/12/12 01:33:28;;;;;;;18.45;12.18;;;4.00;99.90;;;;;;4968249;28;20031;-76
2020/12/12 01:35:54;;;;;;;19.25;12.60;;;4.10;99.90;;;;;;4964744;28;20027;-76
2020/12/12 01:38:20;;;;;;;16.75;12.05;;;4.10;99.90;;;;;;4967935;28;20092;-76
2020/12/12 01:40:45;;;;;;;15.85;11.32;;;4.10;99.90;;;;;;4967566;28;20061;-76
2020/12/12 01:43:12;;;;;;;15.75;11.07;;;4.20;99.90;;;;;;4968119;28;20031;-76
2020/12/12 01:45:38;;;;;;;16.25;11.52;;;4.30;99.90;;;;;;4970847;28;20030;-76
2020/12/12 01:48:07;;;;;;;17.17;12.32;;;4.40;99.90;;;;;;4970772;28;20067;-74
2020/12/12 01:50:33;;;;;;;16.85;12.40;;;4.30;99.90;;;;;;4968611;28;20086;-77
2020/12/12 01:52:59;;;;;;;16.50;11.85;;;4.20;99.90;;;;;;4966515;28;20057;-75
2020/12/12 01:55:25;;;;;;;17.25;12.13;;;4.20;99.90;;;;;;4968327;28;20034;-77
2020/12/12 01:57:51;;;;;;;16.50;11.60;;;4.20;99.90;;;;;;4969771;28;20118;-76
2020/12/12 02:00:18;;;;;;;18.15;11.93;;;4.10;99.90;;;;;;4966104;28;20031;-76
2020/12/12 02:02:50;;;;;;;17.95;12.35;;;4.10;99.90;;;;;;4969353;28;20027;-77
2020/12/12 02:05:38;;;;;;;16.85;11.68;;;3.90;99.90;;;;;;4966836;28;20029;-75
2020/12/12 02:08:07;;;;;;;16.58;11.93;;;3.90;99.90;;;;;;4967271;28;20031;-75
2020/12/12 02:10:34;;;;;;;16.02;11.02;;;4.00;99.90;;;;;;4970334;28;20497;-76
2020/12/12 02:13:01;;;;;;;16.80;11.67;;;4.00;99.90;;;;;;4966301;28;20027;-75
2020/12/12 02:15:26;;;;;;;15.48;10.88;;;4.10;99.90;;;;;;4968589;28;20030;-77
2020/12/12 02:17:52;;;;;;;16.38;10.93;;;4.30;99.90;;;;;;4969860;28;20173;-77
2020/12/12 02:20:18;;;;;;;16.75;11.68;;;4.40;99.90;;;;;;4965827;28;20026;-76
2020/12/12 02:22:45;;;;;;;18.65;11.48;;;4.50;99.90;;;;;;4967442;28;20033;-76
2020/12/12 02:25:11;;;;;;;;;;;4.40;99.90;;;;;;4967373;28;20382;-75
2020/12/12 02:27:37;;;;;;;18.20;12.32;;;4.40;99.90;;;;;;4972360;28;19916;-77
2020/12/12 02:30:04;;;;;;;17.05;12.20;;;4.20;99.90;;;;;;4973603;28;20027;-76
2020/12/12 02:32:30;;;;;;;17.73;12.10;;;4.30;99.90;;;;;;4973291;28;20117;-76
2020/12/12 02:34:56;;;;;;;18.35;12.75;;;4.30;99.90;;;;;;4972238;28;20463;-77
2020/12/12 02:37:21;;;;;;;18.77;12.57;;;4.40;99.90;;;;;;4969900;28;20023;-76
2020/12/12 02:39:47;;;;;;;22.17;13.75;;;4.10;99.90;;;;;;4973563;28;20475;-76
2020/12/12 02:42:13;;;;;;;22.83;13.98;;;4.00;99.90;;;;;;4974066;28;20042;-77
2020/12/12 02:44:38;;;;;;;18.88;12.80;;;4.00;99.90;;;;;;4974448;28;20019;-76
2020/12/12 02:47:04;;;;;;;19.67;12.88;;;4.10;99.90;;;;;;4972534;28;20046;-77
2020/12/12 02:49:30;;;;;;;19.35;13.13;;;4.30;99.90;;;;;;4948011;28;20030;-75
2020/12/12 02:51:55;;;;;;;20.15;13.88;;;4.30;99.90;;;;;;4962454;28;20113;-76
2020/12/12 02:54:21;;;;;;;22.20;14.77;;;4.20;99.90;;;;;;4969177;28;20031;-75
2020/12/12 02:56:46;;;;;;;22.02;14.40;;;4.20;99.90;;;;;;4972340;28;20390;-76
2020/12/12 02:59:12;;;;;;;18.83;12.25;;;4.20;99.90;;;;;;4972481;28;20027;-77
2020/12/12 03:01:41;;;;;;;20.85;13.77;;;4.40;99.90;;;;;;4972400;28;20023;-76
2020/12/12 03:04:08;;;;;;;20.23;13.70;;;4.40;99.90;;;;;;4973974;28;20027;-75
2020/12/12 03:06:36;;;;;;;19.92;13.40;;;4.60;99.90;;;;;;4974078;28;20026;-76
2020/12/12 03:09:03;;;;;;;20.98;13.10;;;4.60;99.90;;;;;;4973112;28;20027;-77
2020/12/12 03:11:29;;;;;;;19.73;13.85;;;4.50;99.90;;;;;;4974146;28;20030;-76
2020/12/12 03:13:55;;;;;;;21.73;14.27;;;4.50;99.90;;;;;;4974019;28;20029;-76
2020/12/12 03:16:20;;;;;;;20.08;13.55;;;4.40;99.90;;;;;;4972699;28;20027;-77
2020/12/12 03:18:46;;;;;;;20.33;13.50;;;4.30;99.90;;;;;;4972975;28;20114;-76
2020/12/12 03:21:12;;;;;;;20.33;13.65;;;4.40;99.90;;;;;;4974192;28;20099;-76
2020/12/12 03:23:37;;;;;;;23.35;14.98;;;4.40;99.90;;;;;;4974114;28;20115;-76
2020/12/12 03:26:03;;;;;;;21.77;13.70;;;4.30;99.90;;;;;;4973908;28;20160;-76
2020/12/12 03:28:28;;;;;;;22.48;14.75;;;4.30;99.90;;;;;;4973776;28;20339;-76
2020/12/12 03:30:54;;;;;;;22.17;14.15;;;4.30;99.90;;;;;;4972714;28;20042;-76
2020/12/12 03:33:20;;;;;;;21.35;13.93;;;4.40;99.90;;;;;;4972379;28;20525;-76
2020/12/12 03:35:45;;;;;;;19.25;12.32;;;4.50;99.90;;;;;;4973598;28;20027;-76
2020/12/12 03:38:11;;;;;;;19.35;12.85;;;4.50;99.90;;;;;;4976083;28;20099;-77
2020/12/12 03:40:36;;;;;;;19.88;13.20;;;4.40;99.90;;;;;;4977527;28;20049;-76
2020/12/12 03:43:02;;;;;;;17.77;12.15;;;4.50;99.90;;;;;;4976026;28;20196;-76
2020/12/12 03:45:28;;;;;;;18.10;12.15;;;4.60;99.90;;;;;;4976910;28;20038;-77
2020/12/12 03:47:54;;;;;;;15.05;10.73;;;4.70;99.90;;;;;;4976506;28;20031;-75
2020/12/12 03:50:27;;;;;;;16.95;11.45;;;4.80;99.90;;;;;;4975729;28;20033;-75
2020/12/12 03:52:53;;;;;;;16.42;10.73;;;4.90;99.90;;;;;;5005894;28;20027;-76
2020/12/12 03:55:19;;;;;;;15.00;10.40;;;4.90;99.90;;;;;;5005824;28;20540;-76
2020/12/12 03:57:45;;;;;;;15.20;10.88;;;4.90;99.90;;;;;;4975147;28;20027;-76
2020/12/12 04:00:10;;;;;;;14.63;10.50;;;4.90;99.90;;;;;;5006155;28;20027;-76
2020/12/12 04:02:36;;;;;;;15.82;11.13;;;4.90;99.90;;;;;;4971943;28;20027;-75
2020/12/12 04:05:02;;;;;;;16.52;11.27;;;5.00;99.90;;;;;;4963838;28;20026;-76
2020/12/12 04:07:27;;;;;;;14.85;10.70;;;5.00;99.90;;;;;;4972451;28;20077;-76
2020/12/12 04:09:53;;;;;;;14.85;10.60;;;5.10;99.90;;;;;;4972689;28;20105;-75
2020/12/12 04:12:18;;;;;;;16.50;11.55;;;5.10;99.90;;;;;;4972895;28;20027;-76
2020/12/12 04:14:44;;;;;;;18.75;11.68;;;5.10;99.90;;;;;;4970461;28;20101;-75
2020/12/12 04:17:09;;;;;;;15.35;11.00;;;5.10;99.90;;;;;;4971601;28;20074;-76
2020/12/12 04:19:35;;;;;;;18.83;12.38;;;5.20;99.90;;;;;;4971265;28;20031;-76
2020/12/12 04:22:01;;;;;;;15.40;11.23;;;5.20;99.90;;;;;;4970076;28;20031;-75
2020/12/12 04:24:27;;;;;;;16.05;10.88;;;5.10;99.90;;;;;;4969415;28;20023;-75
2020/12/12 04:26:53;;;;;;;15.50;11.15;;;5.20;99.90;;;;;;4971739;28;20054;-76
2020/12/12 04:29:18;;;;;;;17.55;11.35;;;5.00;99.90;;;;;;4970674;28;20585;-76
2020/12/12 04:31:44;;;;;;;15.85;11.68;;;5.10;99.90;;;;;;4969892;28;20074;-76
2020/12/12 04:34:10;;;;;;;15.68;12.02;;;5.10;99.90;;;;;;4971206;28;20041;-75
2020/12/12 04:36:35;;;;;;;17.67;11.50;;;5.10;99.90;;;;;;4970322;28;20056;-76
2020/12/12 04:39:02;;;;;;;16.80;11.90;;;5.00;99.90;;;;;;4971500;28;20023;-76
2020/12/12 04:41:28;;;;;;;17.17;12.40;;;5.10;99.90;;;;;;4970876;28;20023;-76
2020/12/12 04:43:54;;;;;;;17.50;12.13;;;5.10;99.90;;;;;;4971288;28;20170;-75
2020/12/12 04:46:20;;;;;;;17.00;12.00;;;4.90;99.90;;;;;;4969119;28;20046;-76
2020/12/12 04:48:46;;;;;;;19.63;12.93;;;4.80;99.90;;;;;;4971360;28;20073;-76
2020/12/12 04:51:13;;;;;;;18.92;12.98;;;4.70;99.90;;;;;;4968485;28;20034;-76
2020/12/12 04:53:40;;;;;;;19.98;13.68;;;4.50;99.90;;;;;;4970547;28;20069;-75
2020/12/12 04:56:07;;;;;;;22.40;13.15;;;4.40;99.90;;;;;;4968813;28;20430;-75
2020/12/12 04:58:38;;;;;;;19.25;13.43;;;4.40;99.90;;;;;;4968888;28;20085;-75
2020/12/12 05:01:04;;;;;;;21.23;14.75;;;4.50;99.90;;;;;;4968699;28;20118;-75
2020/12/12 05:03:32;;;;;;;20.60;13.93;;;4.50;99.90;;;;;;4970904;28;20030;-75
2020/12/12 05:05:57;;;;;;;;;;;4.70;99.90;;;;;;4970548;28;20027;-75
2020/12/12 05:08:23;;;;;;;20.55;14.50;;;4.70;99.90;;;;;;4971131;28;20017;-76
2020/12/12 05:10:50;;;;;;;19.48;13.93;;;4.70;99.90;;;;;;4970037;28;20042;-76
2020/12/12 05:13:30;;;;;;;19.88;13.90;;;4.70;99.90;;;;;;4968543;28;20084;-77
2020/12/12 05:15:58;;;;;;;21.52;15.15;;;4.60;99.90;;;;;;4968623;28;20177;-76
2020/12/12 05:18:24;;;;;;;22.08;15.23;;;4.60;99.90;;;;;;4970270;28;20092;-76
2020/12/12 05:20:51;;;;;;;22.30;15.38;;;4.40;99.90;;;;;;4969950;28;20023;-76
2020/12/12 05:23:27;;;;;;;20.20;14.70;;;4.40;99.90;;;;;;4972433;28;20031;-75
2020/12/12 05:25:53;;;;;;;22.27;14.85;;;4.30;99.90;;;;;;4969321;28;20073;-75
2020/12/12 05:28:21;;;;;;;20.38;14.13;;;4.40;99.90;;;;;;4970132;28;20034;-75
2020/12/12 05:30:48;;;;;;;19.70;14.73;;;4.40;99.90;;;;;;4971160;28;20031;-76
2020/12/12 05:33:15;;;;;;;;;;;4.50;99.90;;;;;;4972049;28;20045;-76
2020/12/12 05:35:41;;;;;;;19.15;13.27;;;4.60;99.90;;;;;;4968856;28;19906;-76
2020/12/12 05:38:11;;;;;;;19.38;13.82;;;4.70;99.90;;;;;;4968134;28;20098;-76
2020/12/12 05:40:42;;;;;;;19.63;13.68;;;4.90;99.90;;;;;;4968287;28;20038;-76
2020/12/12 05:43:10;;;;;;;30.90;16.52;;;4.80;99.90;;;;;;4966786;28;20045;-75
2020/12/12 05:45:36;;;;;;;20.98;14.25;;;4.80;99.90;;;;;;4967744;28;20079;-76
2020/12/12 05:48:04;;;;;;;21.75;13.48;;;4.80;99.90;;;;;;4967847;28;20037;-75
2020/12/12 05:50:30;;;;;;;25.13;15.40;;;4.90;99.90;;;;;;4968121;28;20062;-76
2020/12/12 05:52:56;;;;;;;18.95;12.15;;;4.90;99.90;;;;;;4966720;28;20058;-75
2020/12/12 05:55:27;;;;;;;18.90;13.25;;;5.00;99.90;;;;;;4967833;28;20521;-75
2020/12/12 05:57:54;;;;;;;28.08;16.10;;;5.00;99.90;;;;;;4968031;28;20078;-76
2020/12/12 06:00:21;;;;;;;20.60;13.50;;;4.90;99.90;;;;;;4966504;28;20026;-75
2020/12/12 06:02:56;;;;;;;17.95;12.43;;;4.90;99.90;;;;;;4967675;28;20023;-76
2020/12/12 06:05:28;;;;;;;19.20;12.50;;;5.00;99.90;;;;;;4967408;28;20070;-76
2020/12/12 06:07:56;;;;;;;18.58;12.98;;;5.10;99.90;;;;;;4967832;28;20050;-76
2020/12/12 06:10:33;;;;;;;21.17;14.85;;;5.00;99.90;;;;;;4967060;28;20053;-76
2020/12/12 06:13:04;;;;;;;19.25;14.02;;;4.90;99.90;;;;;;4968452;28;20638;-76
2020/12/12 06:15:41;;;;;;;20.15;14.15;;;4.70;99.90;;;;;;4968302;28;20054;-75
2020/12/12 06:18:21;;;;;;;17.88;12.35;;;4.80;99.90;;;;;;4970093;28;20097;-75
2020/12/12 06:20:51;;;;;;;18.48;13.73;;;4.90;99.90;;;;;;4968098;28;20038;-76
2020/12/12 06:23:17;;;;;;;19.77;14.50;;;4.70;99.90;;;;;;4970897;28;20122;-76
2020/12/12 06:25:43;;;;;;;21.38;14.75;;;4.60;99.90;;;;;;4968532;28;20957;-76
2020/12/12 06:28:15;;;;;;;20.27;14.13;;;4.40;99.90;;;;;;4968831;28;20031;-77
2020/12/12 06:30:43;;;;;;;21.33;14.55;;;4.40;99.90;;;;;;4969009;28;20027;-76
2020/12/12 06:33:08;;;;;;;23.00;14.27;;;4.30;99.90;;;;;;4969290;28;20030;-74
2020/12/12 06:35:35;;;;;;;21.05;14.75;;;4.30;99.90;;;;;;4969947;28;20031;-76
2020/12/12 06:38:22;;;;;;;21.77;15.02;;;4.30;99.90;;;;;;4969397;28;20023;-76
2020/12/12 06:40:50;;;;;;;21.17;14.57;;;4.30;99.90;;;;;;4969107;28;20027;-77
2020/12/12 06:43:34;;;;;;;22.83;15.45;;;4.30;99.90;;;;;;4969160;28;20034;-77
2020/12/12 06:46:05;;;;;;;21.70;14.85;;;4.20;99.90;;;;;;4970324;28;20023;-77
2020/12/12 06:48:32;;;;;;;23.42;15.05;;;4.20;99.90;;;;;;4971494;28;20039;-77
2020/12/12 06:51:00;;;;;;;25.02;15.73;;;4.20;99.90;;;;;;4970755;28;20150;-77
2020/12/12 06:53:29;;;;;;;25.63;15.38;;;4.10;99.90;;;;;;4968841;28;20254;-77
2020/12/12 06:56:12;;;;;;;21.42;15.00;;;4.00;99.90;;;;;;4968861;28;20022;-76
2020/12/12 06:58:39;;;;;;;23.30;14.88;;;4.10;99.90;;;;;;4969111;28;20030;-76
2020/12/12 07:01:27;;;;;;;20.90;13.98;;;4.30;99.90;;;;;;4969227;28;20023;-76
2020/12/12 07:04:11;;;;;;;16.15;10.95;;;4.40;99.90;;;;;;4968425;28;20166;-75
2020/12/12 07:06:37;;;;;;;15.35;10.35;;;4.50;99.90;;;;;;4968372;28;20066;-76
2020/12/12 07:09:09;;;;;;;13.77;9.95;;;4.60;99.90;;;;;;4969053;28;20077;-76
2020/12/12 07:11:35;;;;;;;17.17;10.27;;;4.60;99.90;;;;;;4967238;28;20056;-75
2020/12/12 07:14:02;;;;;;;14.30;9.50;;;4.70;99.90;;;;;;4970763;28;20023;-75
2020/12/12 07:16:29;;;;;;;16.00;9.07;;;4.70;99.90;;;;;;4972049;28;20038;-76
2020/12/12 07:18:56;;;;;;;14.18;10.05;;;4.70;99.90;;;;;;4970330;28;20050;-75
2020/12/12 07:21:22;;;;;;;15.07;10.68;;;4.70;99.90;;;;;;4970894;28;20110;-76
2020/12/12 07:23:49;;;;;;;15.55;10.23;;;4.50;99.90;;;;;;4969947;28;20383;-76
2020/12/12 07:26:15;;;;;;;17.30;9.80;;;4.60;99.90;;;;;;4970403;28;20106;-76
2020/12/12 07:28:41;;;;;;;15.23;10.90;;;4.60;99.90;;;;;;4970571;28;20394;-76
2020/12/12 07:31:07;;;;;;;13.43;8.88;;;4.60;99.90;;;;;;4969426;28;20034;-75
2020/12/12 07:33:33;;;;;;;14.20;9.07;;;4.70;99.90;;;;;;4970575;28;20045;-75
2020/12/12 07:36:00;;;;;;;13.00;8.90;;;4.70;99.90;;;;;;4970868;28;20098;-76
2020/12/12 07:38:27;;;;;;;13.02;9.05;;;4.80;99.90;;;;;;4969772;28;20122;-75
2020/12/12 07:40:53;;;;;;;15.10;9.77;;;4.80;99.90;;;;;;4970317;28;20046;-76
2020/12/12 07:43:19;;;;;;;16.65;9.82;;;4.80;99.90;;;;;;4970774;28;20498;-76
2020/12/12 07:48:16;;;;;;;13.88;8.55;;;4.70;99.90;;;;;;4970901;28;20026;-76
2020/12/12 07:50:42;;;;;;;17.85;9.32;;;4.90;99.90;;;;;;4970679;28;20046;-76
2020/12/12 07:53:11;;;;;;;15.20;9.77;;;4.80;99.90;;;;;;4969848;28;20058;-76
2020/12/12 07:55:48;;;;;;;13.73;9.63;;;4.90;99.90;;;;;;4969904;28;20023;-76
2020/12/12 07:58:18;;;;;;;;;;;4.70;99.90;;;;;;4973041;28;20106;-75
2020/12/12 08:00:44;;;;;;;12.50;9.07;;;4.90;99.90;;;;;;4976450;28;20286;-78
2020/12/12 08:03:09;;;;;;;13.98;9.70;;;4.90;99.90;;;;;;4962237;28;20031;-78
2020/12/12 08:05:36;;;;;;;13.10;9.63;;;5.00;99.90;;;;;;4963825;28;20438;-76
2020/12/12 08:08:09;;;;;;;12.60;8.52;;;4.90;99.90;;;;;;4976666;28;20049;-78
2020/12/12 08:10:35;;;;;;;18.35;9.55;;;5.00;99.90;;;;;;5006017;28;20038;-78
2020/12/12 08:13:01;;;;;;;12.73;9.40;;;4.80;99.90;;;;;;4974289;28;20030;-76
2020/12/12 08:15:34;;;;;;;13.82;8.32;;;4.90;99.90;;;;;;4967652;28;20029;-75
2020/12/12 08:18:10;;;;;;;13.88;8.80;;;5.20;99.90;;;;;;4969399;28;20014;-76
2020/12/12 08:20:36;;;;;;;12.52;8.25;;;4.90;99.90;;;;;;4969659;28;20023;-76
2020/12/12 08:23:03;;;;;;;15.40;8.93;;;5.10;99.90;;;;;;4969552;28;20294;-76
2020/12/12 08:25:29;;;;;;;14.15;9.00;;;5.20;99.90;;;;;;4968665;28;20038;-76
2020/12/12 08:27:56;;;;;;;12.25;8.55;;;5.20;99.90;;;;;;4971197;28;20093;-76
2020/12/12 08:30:24;;;;;;;12.38;8.82;;;5.20;99.90;;;;;;4971828;28;20100;-75
2020/12/12 08:32:50;;;;;;;13.45;8.70;;;5.20;99.90;;;;;;4971618;28;20109;-76
2020/12/12 08:35:19;;;;;;;11.98;8.30;;;5.20;99.90;;;;;;4970129;28;20106;-75
2020/12/12 08:37:57;;;;;;;12.60;8.27;;;5.30;99.90;;;;;;4971240;28;20057;-76
2020/12/12 08:40:24;;;;;;;10.63;7.38;;;5.40;99.90;;;;;;4971040;28;20023;-76
2020/12/12 08:42:58;;;;;;;10.63;7.25;;;5.70;99.90;;;;;;4969428;28;20118;-76
2020/12/12 08:45:25;;;;;;;10.68;7.30;;;6.00;99.90;;;;;;4970570;28;20018;-77
2020/12/12 08:48:35;;;;;;;10.32;6.82;;;6.20;99.90;;;;;;4971012;28;20026;-76
2020/12/12 08:51:07;;;;;;;8.52;6.35;;;6.30;99.90;;;;;;4968844;28;20038;-76
2020/12/12 08:53:41;;;;;;;12.02;6.90;;;6.40;99.90;;;;;;4971890;28;20033;-76
2020/12/12 08:56:15;;;;;;;12.90;6.97;;;6.40;99.90;;;;;;4972484;28;20023;-77
2020/12/12 08:59:00;;;;;;;9.30;6.35;;;6.50;99.90;;;;;;5003215;28;20030;-76
2020/12/12 09:01:31;;;;;;;8.95;5.97;;;6.60;99.90;;;;;;4971071;28;20593;-76
2020/12/12 09:03:57;;;;;;;8.25;6.13;;;6.10;99.90;;;;;;4970891;28;20037;-76
2020/12/12 09:06:25;;;;;;;10.35;6.38;;;6.30;99.90;;;;;;4969890;28;20109;-76
2020/12/12 09:09:14;;;;;;;8.10;5.50;;;6.30;99.90;;;;;;4971206;28;20712;-76
2020/12/12 09:11:46;;;;;;;8.70;6.30;;;6.30;99.90;;;;;;4971987;28;20027;-76
2020/12/12 09:14:12;;;;;;;8.57;5.80;;;6.30;99.90;;;;;;4970843;28;20054;-77
2020/12/12 09:16:40;;;;;;;9.48;6.50;;;6.30;99.90;;;;;;5001283;28;20043;-76
2020/12/12 09:19:06;;;;;;;9.18;6.57;;;6.10;99.90;;;;;;4970645;28;20031;-76
2020/12/12 09:21:34;;;;;;;11.35;6.90;;;6.10;99.90;;;;;;4970762;28;20025;-77
2020/12/12 09:23:59;;;;;;;13.45;7.15;;;6.00;99.90;;;;;;4969769;28;20101;-76
2020/12/12 09:26:25;;;;;;;8.85;6.60;;;6.00;99.90;;;;;;4970007;28;20130;-76
2020/12/12 09:28:51;;;;;;;8.60;5.57;;;5.90;99.90;;;;;;4970283;28;20038;-75
2020/12/12 09:31:18;;;;;;;8.48;5.80;;;6.00;99.90;;;;;;4970731;28;20039;-77
2020/12/12 09:33:44;;;;;;;8.85;6.03;;;6.10;99.90;;;;;;5001661;28;20406;-76
2020/12/12 09:36:11;;;;;;;8.73;5.78;;;6.10;99.90;;;;;;4967589;28;20038;-76
2020/12/12 09:38:37;;;;;;;12.90;6.57;;;6.10;99.90;;;;;;4968755;28;20542;-76
2020/12/12 09:41:03;;;;;;;8.05;5.82;;;6.00;99.90;;;;;;5000441;28;20121;-76
2020/12/12 09:43:28;;;;;;;10.23;6.57;;;6.00;99.90;;;;;;4951523;28;20078;-76
2020/12/12 09:45:54;;;;;;;9.02;6.20;;;6.00;99.90;;;;;;4949325;29;20039;-76
2020/12/12 09:48:20;;;;;;;9.65;5.90;;;6.00;99.90;;;;;;4952119;28;20027;-76
2020/12/12 09:50:46;;;;;;;8.88;6.20;;;6.00;99.90;;;;;;5000202;28;20110;-76
2020/12/12 09:53:12;;;;;;;8.65;6.22;;;6.00;99.90;;;;;;4985429;28;20046;-76
2020/12/12 09:55:40;;;;;;;13.15;6.45;;;6.10;99.90;;;;;;4969395;28;20118;-76
2020/12/12 09:58:09;;;;;;;9.95;5.88;;;6.10;99.90;;;;;;4968416;28;20031;-77
2020/12/12 10:00:37;;;;;;;15.05;6.78;;;6.10;99.90;;;;;;4969319;28;20042;-76
2020/12/12 10:03:05;;;;;;;9.20;6.28;;;6.20;99.90;;;;;;4970716;28;20019;-78
2020/12/12 10:05:32;;;;;;;8.95;5.75;;;6.20;99.90;;;;;;4974622;28;20015;-77
2020/12/12 10:07:58;;;;;;;8.03;5.43;;;6.30;99.90;;;;;;4975259;28;20035;-79
2020/12/12 10:10:24;;;;;;;8.27;5.78;;;6.30;99.90;;;;;;4973864;28;20037;-76
2020/12/12 10:12:51;;;;;;;7.87;5.87;;;6.20;99.90;;;;;;4975750;28;20069;-77
2020/12/12 10:15:18;;;;;;;7.80;5.57;;;6.30;99.90;;;;;;4973674;28;20484;-78
2020/12/12 10:17:44;;;;;;;8.30;5.85;;;6.30;99.90;;;;;;4990788;28;20070;-78
2020/12/12 10:20:10;;;;;;;7.43;5.30;;;6.40;99.90;;;;;;4974748;28;20030;-76
2020/12/12 10:22:36;;;;;;;8.00;5.65;;;6.60;99.90;;;;;;4976176;28;20027;-79
2020/12/12 10:25:02;;;;;;;7.90;5.70;;;6.60;99.90;;;;;;4989599;28;20350;-79
2020/12/12 10:27:28;;;;;;;11.52;6.28;;;6.50;99.90;;;;;;4990151;28;20031;-77
2020/12/12 10:29:56;;;;;;;10.02;5.88;;;6.60;99.90;;;;;;4971579;28;20039;-78
2020/12/12 10:32:21;;;;;;;8.35;5.75;;;6.60;99.90;;;;;;4987615;28;20031;-77
2020/12/12 10:34:47;;;;;;;7.88;5.40;;;6.70;99.90;;;;;;4973468;28;20038;-76
2020/12/12 10:37:13;;;;;;;10.60;5.60;;;6.70;99.90;;;;;;4974215;28;20029;-77
2020/12/12 10:39:50;;;;;;;12.80;6.47;;;6.60;99.90;;;;;;4973098;28;20027;-79
2020/12/12 10:42:16;;;;;;;;;;;6.50;99.90;;;;;;5026758;22;20050;-78
2020/12/12 10:44:41;;;;;;;13.65;7.88;;;6.60;99.90;;;;;;5007086;22;20334;-77
2020/12/12 10:47:07;;;;;;;9.90;6.00;;;6.60;99.90;;;;;;4972650;28;20488;-78
2020/12/12 10:49:32;;;;;;;9.30;5.82;;;6.60;99.90;;;;;;4971071;28;20019;-77
2020/12/12 10:51:59;;;;;;;9.55;6.57;;;6.60;99.90;;;;;;4969674;28;20022;-77
2020/12/12 10:54:26;;;;;;;10.50;6.25;;;6.80;99.90;;;;;;4985847;28;20061;-79
2020/12/12 10:56:52;;;;;;;10.38;6.20;;;6.60;99.90;;;;;;4970932;28;20370;-78
2020/12/12 10:59:18;;;;;;;6.93;5.10;;;6.70;99.90;;;;;;4970788;28;20027;-77
2020/12/12 11:01:44;;;;;;;10.98;5.88;;;6.70;99.90;;;;;;4971285;28;20023;-77
2020/12/12 11:04:09;;;;;;;10.73;6.10;;;6.80;99.90;;;;;;4970795;28;20067;-78
2020/12/12 11:06:35;;;;;;;9.00;5.53;;;6.70;99.90;;;;;;4970968;28;20046;-77
2020/12/12 11:09:02;;;;;;;8.05;5.55;;;6.80;99.90;;;;;;4985878;28;20117;-77
2020/12/12 11:11:28;;;;;;;10.20;5.55;;;6.80;99.90;;;;;;4969505;28;20030;-76
2020/12/12 11:13:54;;;;;;;10.38;5.57;;;6.70;99.90;;;;;;4970177;28;20027;-75
2020/12/12 11:16:24;;;;;;;9.27;5.80;;;6.80;99.90;;;;;;4969340;28;20385;-76
2020/12/12 11:18:52;;;;;;;10.88;6.50;;;6.80;99.90;;;;;;4969692;28;20081;-76
2020/12/12 11:21:21;;;;;;;9.10;6.00;;;6.80;99.90;;;;;;4970863;28;20106;-76
2020/12/12 11:23:47;;;;;;;8.52;5.70;;;6.80;99.90;;;;;;4969153;28;20127;-77
2020/12/12 11:26:13;;;;;;;10.25;6.00;;;6.70;99.90;;;;;;4985096;28;20031;-76
2020/12/12 11:28:40;;;;;;;8.20;5.72;;;6.70;99.90;;;;;;4985483;28;20082;-79
2020/12/12 11:31:06;;;;;;;9.90;5.95;;;6.70;99.90;;;;;;4971095;28;20026;-76
2020/12/12 11:33:35;;;;;;;9.20;6.00;;;6.60;99.90;;;;;;4968845;28;20621;-77
2020/12/12 11:38:56;;;;;;;8.65;5.97;;;6.70;99.90;;;;;;4970550;28;20030;-76
2020/12/12 11:48:50;;;;;;;7.65;4.93;;;6.90;99.90;;;;;;4966837;28;20477;-78
2020/12/12 11:51:15;;;;;;;7.45;5.40;;;6.90;99.90;;;;;;4970439;28;20058;-78
2020/12/12 11:53:42;;;;;;;7.32;5.53;;;6.90;99.90;;;;;;4969654;28;20064;-77
2020/12/12 11:56:07;;;;;;;8.57;5.97;;;7.00;99.90;;;;;;4968208;28;20087;-77
2020/12/12 11:58:36;;;;;;;10.35;6.68;;;7.00;99.90;;;;;;4967931;28;20027;-78
2020/12/12 12:01:02;;;;;;;9.55;6.40;;;7.10;99.90;;;;;;4969463;28;20026;-79
2020/12/12 12:03:27;;;;;;;10.05;6.70;;;7.10;99.90;;;;;;4970626;28;20029;-80
2020/12/12 12:05:53;;;;;;;9.75;6.35;;;7.10;99.90;;;;;;4968456;28;20038;-79
2020/12/12 12:11:35;;;;;;;9.95;6.43;;;7.10;99.90;;;;;;4968520;28;20031;-76
2020/12/12 12:13:36;;;;;;;9.55;6.18;;;7.10;99.90;;;;;;4972232;28;20054;-77
2020/12/12 12:16:03;;;;;;;8.18;6.03;;;7.20;99.90;;;;;;4969495;28;20035;-77
2020/12/12 12:18:29;;;;;;;9.35;6.22;;;7.30;99.90;;;;;;4969510;28;20026;-76
2020/12/12 12:20:59;;;;;;;8.55;5.82;;;7.20;99.90;;;;;;4968775;28;20513;-78
2020/12/12 12:23:25;;;;;;;7.85;5.35;;;7.20;99.90;;;;;;4969618;28;20039;-76
2020/12/12 12:25:51;;;;;;;7.68;5.28;;;7.20;99.90;;;;;;4969283;28;20099;-77
2020/12/12 12:28:18;;;;;;;8.05;5.68;;;7.20;99.90;;;;;;4969563;28;20057;-77
2020/12/12 12:30:45;;;;;;;6.95;4.97;;;7.20;99.90;;;;;;4969727;28;20023;-77
2020/12/12 12:33:11;;;;;;;7.68;5.63;;;7.20;99.90;;;;;;4968116;28;20485;-77
2020/12/12 12:35:45;;;;;;;7.78;5.47;;;7.10;99.90;;;;;;4966765;28;20073;-77
2020/12/12 12:38:11;;;;;;;9.77;6.28;;;7.10;99.90;;;;;;4969085;28;20023;-77
2020/12/12 12:40:37;;;;;;;9.20;5.47;;;7.20;99.90;;;;;;4968299;28;20057;-76
2020/12/12 12:43:02;;;;;;;8.27;5.30;;;7.10;99.90;;;;;;4968759;28;20018;-77
2020/12/12 12:45:28;;;;;;;7.90;4.85;;;7.10;99.90;;;;;;4967426;28;20046;-77
2020/12/12 12:47:54;;;;;;;7.40;5.30;;;7.20;99.90;;;;;;4968912;28;20023;-77
2020/12/12 12:50:33;;;;;;;9.52;5.35;;;7.20;99.90;;;;;;4970024;28;20023;-77
2020/12/12 12:53:02;;;;;;;6.60;4.90;;;7.30;99.90;;;;;;4969766;28;20528;-76
2020/12/12 12:55:28;;;;;;;9.98;4.72;;;7.40;99.90;;;;;;4968080;28;20569;-76
2020/12/12 12:57:54;;;;;;;8.82;4.97;;;7.50;99.90;;;;;;4968106;28;20023;-75
2020/12/12 13:00:20;;;;;;;8.15;4.75;;;7.60;99.90;;;;;;4969379;28;20019;-77
2020/12/12 13:02:46;;;;;;;6.75;4.85;;;7.60;99.90;;;;;;4967596;28;20027;-77